sensor_id;sensor_type;location;lat;lon;timestamp;P1;durP1;ratioP1;P2;durP2;ratioP2
62616;SDS011;62539;51.190;6.808;2022-11-20T00:00:54;6.30;;;3.17;;
62616;SDS011;62539;51.190;6.808;2022-11-20T00:03:20;6.82;;;2.80;;
62616;SDS011;62539;51.190;6.808;2022-11-20T00:05:46;3.30;;;2.13;;
62616;SDS011;62539;51.190;6.808;2022-11-20T00:08:11;5.53;;;2.50;;
62616;SDS011;62539;51.190;6.808;2022-11-20T00:10:38;4.22;;;2.80;;
62616;SDS011;62539;51.190;6.808;2022-11-20T00:13:05;6.43;;;3.15;;
62616;SDS011;62539;51.190;6.808;2022-11-20T00:15:31;4.55;;;2.75;;
62616;SDS011;62539;51.190;6.808;2022-11-20T00:17:57;4.60;;;2.90;;
62616;SDS011;62539;51.190;6.808;2022-11-20T00:20:22;4.05;;;2.72;;
62616;SDS011;62539;51.190;6.808;2022-11-20T00:22:49;4.15;;;3.00;;
62616;SDS011;62539;51.190;6.808;2022-11-20T00:25:15;3.83;;;2.50;;
62616;SDS011;62539;51.190;6.808;2022-11-20T00:27:40;5.13;;;2.90;;
62616;SDS011;62539;51.190;6.808;2022-11-20T00:30:06;3.40;;;2.20;;
62616;SDS011;62539;51.190;6.808;2022-11-20T00:32:32;4.18;;;2.65;;
62616;SDS011;62539;51.190;6.808;2022-11-20T00:34:57;4.70;;;3.03;;
62616;SDS011;62539;51.190;6.808;2022-11-20T00:37:23;3.58;;;2.47;;
62616;SDS011;62539;51.190;6.808;2022-11-20T00:39:48;5.05;;;2.80;;
62616;SDS011;62539;51.190;6.808;2022-11-20T00:42:13;7.20;;;2.90;;
62616;SDS011;62539;51.190;6.808;2022-11-20T00:44:39;4.45;;;2.80;;
62616;SDS011;62539;51.190;6.808;2022-11-20T00:47:04;5.57;;;2.50;;
62616;SDS011;62539;51.190;6.808;2022-11-20T00:49:30;3.95;;;2.80;;
62616;SDS011;62539;51.190;6.808;2022-11-20T00:51:55;6.78;;;2.65;;
62616;SDS011;62539;51.190;6.808;2022-11-20T00:54:20;5.60;;;3.15;;
62616;SDS011;62539;51.190;6.808;2022-11-20T00:56:46;3.60;;;2.60;;
62616;SDS011;62539;51.190;6.808;2022-11-20T00:59:11;3.95;;;2.83;;
62616;SDS011;62539;51.190;6.808;2022-11-20T01:01:37;4.45;;;2.75;;
62616;SDS011;62539;51.190;6.808;2022-11-20T01:04:03;4.40;;;2.90;;
62616;SDS011;62539;51.190;6.808;2022-11-20T01:06:30;4.90;;;2.42;;
62616;SDS011;62539;51.190;6.808;2022-11-20T01:09:00;5.03;;;2.58;;
62616;SDS011;62539;51.190;6.808;2022-11-20T01:11:31;5.25;;;2.72;;
62616;SDS011;62539;51.190;6.808;2022-11-20T01:14:00;5.00;;;2.85;;
62616;SDS011;62539;51.190;6.808;2022-11-20T01:16:30;4.03;;;2.50;;
62616;SDS011;62539;51.190;6.808;2022-11-20T01:18:59;5.50;;;2.70;;
62616;SDS011;62539;51.190;6.808;2022-11-20T01:21:31;3.58;;;2.20;;
62616;SDS011;62539;51.190;6.808;2022-11-20T01:24:03;4.20;;;2.53;;
62616;SDS011;62539;51.190;6.808;2022-11-20T01:26:31;3.30;;;2.80;;
62616;SDS011;62539;51.190;6.808;2022-11-20T01:28:59;4.03;;;2.75;;
62616;SDS011;62539;51.190;6.808;2022-11-20T01:31:35;3.95;;;2.58;;
62616;SDS011;62539;51.190;6.808;2022-11-20T01:34:03;5.32;;;3.05;;
62616;SDS011;62539;51.190;6.808;2022-11-20T01:36:32;3.33;;;2.40;;
62616;SDS011;62539;51.190;6.808;2022-11-20T01:39:02;3.25;;;2.58;;
62616;SDS011;62539;51.190;6.808;2022-11-20T01:41:31;3.92;;;2.83;;
62616;SDS011;62539;51.190;6.808;2022-11-20T01:44:18;3.70;;;2.63;;
62616;SDS011;62539;51.190;6.808;2022-11-20T01:46:55;4.55;;;2.85;;
62616;SDS011;62539;51.190;6.808;2022-11-20T01:52:05;3.75;;;2.75;;
62616;SDS011;62539;51.190;6.808;2022-11-20T01:54:48;3.92;;;2.78;;
62616;SDS011;62539;51.190;6.808;2022-11-20T01:57:21;4.18;;;2.72;;
62616;SDS011;62539;51.190;6.808;2022-11-20T01:59:53;4.68;;;2.67;;
62616;SDS011;62539;51.190;6.808;2022-11-20T02:02:36;5.07;;;2.90;;
62616;SDS011;62539;51.190;6.808;2022-11-20T02:05:14;3.08;;;2.25;;
62616;SDS011;62539;51.190;6.808;2022-11-20T02:07:57;6.78;;;2.63;;
62616;SDS011;62539;51.190;6.808;2022-11-20T02:10:25;3.17;;;2.42;;
62616;SDS011;62539;51.190;6.808;2022-11-20T02:12:52;3.53;;;2.38;;
62616;SDS011;62539;51.190;6.808;2022-11-20T02:15:37;4.65;;;2.40;;
62616;SDS011;62539;51.190;6.808;2022-11-20T02:18:03;5.35;;;2.70;;
62616;SDS011;62539;51.190;6.808;2022-11-20T02:20:30;5.22;;;2.28;;
62616;SDS011;62539;51.190;6.808;2022-11-20T02:22:57;3.33;;;2.40;;
62616;SDS011;62539;51.190;6.808;2022-11-20T02:25:30;4.60;;;2.75;;
62616;SDS011;62539;51.190;6.808;2022-11-20T02:28:00;5.87;;;2.53;;
62616;SDS011;62539;51.190;6.808;2022-11-20T02:30:26;4.40;;;2.70;;
62616;SDS011;62539;51.190;6.808;2022-11-20T02:32:52;2.85;;;2.50;;
62616;SDS011;62539;51.190;6.808;2022-11-20T02:37:42;3.42;;;2.60;;
62616;SDS011;62539;51.190;6.808;2022-11-20T02:40:09;4.20;;;2.58;;
62616;SDS011;62539;51.190;6.808;2022-11-20T02:42:36;3.60;;;2.55;;
62616;SDS011;62539;51.190;6.808;2022-11-20T02:45:03;3.85;;;2.50;;
62616;SDS011;62539;51.190;6.808;2022-11-20T02:47:30;3.58;;;2.58;;
62616;SDS011;62539;51.190;6.808;2022-11-20T02:49:55;3.00;;;2.35;;
62616;SDS011;62539;51.190;6.808;2022-11-20T02:52:21;3.47;;;2.42;;
62616;SDS011;62539;51.190;6.808;2022-11-20T02:54:47;4.43;;;2.88;;
62616;SDS011;62539;51.190;6.808;2022-11-20T02:57:12;2.97;;;2.60;;
62616;SDS011;62539;51.190;6.808;2022-11-20T02:59:37;4.78;;;2.80;;
62616;SDS011;62539;51.190;6.808;2022-11-20T03:02:03;3.75;;;2.78;;
62616;SDS011;62539;51.190;6.808;2022-11-20T03:04:29;6.20;;;2.90;;
62616;SDS011;62539;51.190;6.808;2022-11-20T03:06:55;2.75;;;2.42;;
62616;SDS011;62539;51.190;6.808;2022-11-20T03:09:21;5.05;;;2.92;;
62616;SDS011;62539;51.190;6.808;2022-11-20T03:11:46;3.92;;;2.60;;
62616;SDS011;62539;51.190;6.808;2022-11-20T03:14:12;2.70;;;2.50;;
62616;SDS011;62539;51.190;6.808;2022-11-20T03:16:39;3.35;;;2.45;;
62616;SDS011;62539;51.190;6.808;2022-11-20T03:19:04;3.28;;;2.47;;
62616;SDS011;62539;51.190;6.808;2022-11-20T03:21:30;3.33;;;2.63;;
62616;SDS011;62539;51.190;6.808;2022-11-20T03:23:58;3.08;;;2.28;;
62616;SDS011;62539;51.190;6.808;2022-11-20T03:26:24;3.45;;;2.50;;
62616;SDS011;62539;51.190;6.808;2022-11-20T03:28:52;3.50;;;2.47;;
62616;SDS011;62539;51.190;6.808;2022-11-20T03:31:23;3.40;;;2.35;;
62616;SDS011;62539;51.190;6.808;2022-11-20T03:33:51;4.05;;;2.95;;
62616;SDS011;62539;51.190;6.808;2022-11-20T03:36:17;4.00;;;2.67;;
62616;SDS011;62539;51.190;6.808;2022-11-20T03:38:46;4.13;;;2.70;;
62616;SDS011;62539;51.190;6.808;2022-11-20T03:41:14;5.47;;;2.53;;
62616;SDS011;62539;51.190;6.808;2022-11-20T03:43:48;3.28;;;2.50;;
62616;SDS011;62539;51.190;6.808;2022-11-20T03:46:20;3.17;;;2.30;;
62616;SDS011;62539;51.190;6.808;2022-11-20T03:48:46;3.30;;;2.33;;
62616;SDS011;62539;51.190;6.808;2022-11-20T03:51:22;3.38;;;2.35;;
62616;SDS011;62539;51.190;6.808;2022-11-20T03:53:51;3.50;;;2.70;;
62616;SDS011;62539;51.190;6.808;2022-11-20T03:56:20;5.20;;;2.58;;
62616;SDS011;62539;51.190;6.808;2022-11-20T03:58:49;3.92;;;2.50;;
62616;SDS011;62539;51.190;6.808;2022-11-20T04:01:17;3.20;;;2.60;;
62616;SDS011;62539;51.190;6.808;2022-11-20T04:03:45;4.73;;;2.63;;
62616;SDS011;62539;51.190;6.808;2022-11-20T04:06:16;2.55;;;2.28;;
62616;SDS011;62539;51.190;6.808;2022-11-20T04:08:47;3.13;;;2.42;;
62616;SDS011;62539;51.190;6.808;2022-11-20T04:11:15;3.47;;;2.33;;
62616;SDS011;62539;51.190;6.808;2022-11-20T04:13:47;2.65;;;2.33;;
62616;SDS011;62539;51.190;6.808;2022-11-20T04:16:15;3.30;;;2.53;;
62616;SDS011;62539;51.190;6.808;2022-11-20T04:18:41;2.30;;;2.00;;
62616;SDS011;62539;51.190;6.808;2022-11-20T04:21:08;2.97;;;2.45;;
62616;SDS011;62539;51.190;6.808;2022-11-20T04:23:34;3.65;;;2.63;;
62616;SDS011;62539;51.190;6.808;2022-11-20T04:26:01;3.45;;;2.40;;
62616;SDS011;62539;51.190;6.808;2022-11-20T04:28:36;4.60;;;2.50;;
62616;SDS011;62539;51.190;6.808;2022-11-20T04:31:06;2.65;;;2.13;;
62616;SDS011;62539;51.190;6.808;2022-11-20T04:33:35;3.88;;;2.55;;
62616;SDS011;62539;51.190;6.808;2022-11-20T04:36:03;4.03;;;2.42;;
62616;SDS011;62539;51.190;6.808;2022-11-20T04:38:37;3.47;;;2.70;;
62616;SDS011;62539;51.190;6.808;2022-11-20T04:41:04;2.88;;;2.05;;
62616;SDS011;62539;51.190;6.808;2022-11-20T04:43:33;3.33;;;2.53;;
62616;SDS011;62539;51.190;6.808;2022-11-20T04:45:59;3.10;;;2.30;;
62616;SDS011;62539;51.190;6.808;2022-11-20T04:48:27;3.30;;;2.53;;
62616;SDS011;62539;51.190;6.808;2022-11-20T04:50:53;4.22;;;2.28;;
62616;SDS011;62539;51.190;6.808;2022-11-20T04:53:19;2.35;;;2.13;;
62616;SDS011;62539;51.190;6.808;2022-11-20T04:55:46;3.30;;;2.42;;
62616;SDS011;62539;51.190;6.808;2022-11-20T04:58:12;3.55;;;2.47;;
62616;SDS011;62539;51.190;6.808;2022-11-20T05:00:38;3.55;;;2.40;;
62616;SDS011;62539;51.190;6.808;2022-11-20T05:03:03;3.58;;;2.42;;
62616;SDS011;62539;51.190;6.808;2022-11-20T05:05:29;2.20;;;2.00;;
62616;SDS011;62539;51.190;6.808;2022-11-20T05:07:58;2.80;;;2.40;;
62616;SDS011;62539;51.190;6.808;2022-11-20T05:10:24;2.85;;;2.55;;
62616;SDS011;62539;51.190;6.808;2022-11-20T05:12:50;2.97;;;2.33;;
62616;SDS011;62539;51.190;6.808;2022-11-20T05:15:16;4.40;;;2.45;;
62616;SDS011;62539;51.190;6.808;2022-11-20T05:17:46;3.17;;;2.30;;
62616;SDS011;62539;51.190;6.808;2022-11-20T05:20:15;3.20;;;2.30;;
62616;SDS011;62539;51.190;6.808;2022-11-20T05:22:42;3.42;;;2.42;;
62616;SDS011;62539;51.190;6.808;2022-11-20T05:25:08;2.42;;;2.20;;
62616;SDS011;62539;51.190;6.808;2022-11-20T05:27:34;3.65;;;2.50;;
62616;SDS011;62539;51.190;6.808;2022-11-20T05:29:59;2.65;;;2.15;;
62616;SDS011;62539;51.190;6.808;2022-11-20T05:32:24;3.22;;;2.40;;
62616;SDS011;62539;51.190;6.808;2022-11-20T05:34:50;2.53;;;2.05;;
62616;SDS011;62539;51.190;6.808;2022-11-20T05:37:17;3.35;;;2.25;;
62616;SDS011;62539;51.190;6.808;2022-11-20T05:39:42;2.78;;;2.35;;
62616;SDS011;62539;51.190;6.808;2022-11-20T05:42:07;4.00;;;2.50;;
62616;SDS011;62539;51.190;6.808;2022-11-20T05:44:51;3.83;;;2.67;;
62616;SDS011;62539;51.190;6.808;2022-11-20T05:47:17;2.55;;;2.35;;
62616;SDS011;62539;51.190;6.808;2022-11-20T05:49:42;2.35;;;2.10;;
62616;SDS011;62539;51.190;6.808;2022-11-20T05:52:08;2.47;;;2.13;;
62616;SDS011;62539;51.190;6.808;2022-11-20T05:54:33;2.72;;;2.00;;
62616;SDS011;62539;51.190;6.808;2022-11-20T05:56:58;2.20;;;2.00;;
62616;SDS011;62539;51.190;6.808;2022-11-20T05:59:24;3.00;;;2.30;;
62616;SDS011;62539;51.190;6.808;2022-11-20T06:01:49;3.17;;;2.10;;
62616;SDS011;62539;51.190;6.808;2022-11-20T06:04:15;2.25;;;1.88;;
62616;SDS011;62539;51.190;6.808;2022-11-20T06:06:40;2.92;;;2.05;;
62616;SDS011;62539;51.190;6.808;2022-11-20T06:09:06;4.03;;;2.10;;
62616;SDS011;62539;51.190;6.808;2022-11-20T06:11:31;3.22;;;2.30;;
62616;SDS011;62539;51.190;6.808;2022-11-20T06:13:57;2.80;;;2.10;;
62616;SDS011;62539;51.190;6.808;2022-11-20T06:16:22;4.13;;;2.15;;
62616;SDS011;62539;51.190;6.808;2022-11-20T06:18:48;3.45;;;2.42;;
62616;SDS011;62539;51.190;6.808;2022-11-20T06:21:15;2.28;;;2.03;;
62616;SDS011;62539;51.190;6.808;2022-11-20T06:23:44;2.85;;;2.05;;
62616;SDS011;62539;51.190;6.808;2022-11-20T06:26:10;2.90;;;2.17;;
62616;SDS011;62539;51.190;6.808;2022-11-20T06:28:39;2.08;;;1.88;;
62616;SDS011;62539;51.190;6.808;2022-11-20T06:31:05;2.58;;;1.90;;
62616;SDS011;62539;51.190;6.808;2022-11-20T06:33:32;4.03;;;2.33;;
62616;SDS011;62539;51.190;6.808;2022-11-20T06:35:58;2.50;;;2.08;;
62616;SDS011;62539;51.190;6.808;2022-11-20T06:38:25;3.17;;;2.10;;
62616;SDS011;62539;51.190;6.808;2022-11-20T06:40:52;3.03;;;2.30;;
62616;SDS011;62539;51.190;6.808;2022-11-20T06:43:19;3.67;;;3.10;;
62616;SDS011;62539;51.190;6.808;2022-11-20T06:45:44;2.92;;;2.63;;
62616;SDS011;62539;51.190;6.808;2022-11-20T06:48:10;2.67;;;2.35;;
62616;SDS011;62539;51.190;6.808;2022-11-20T06:50:38;2.78;;;2.35;;
62616;SDS011;62539;51.190;6.808;2022-11-20T06:53:04;2.63;;;1.90;;
62616;SDS011;62539;51.190;6.808;2022-11-20T06:55:30;2.35;;;2.10;;
62616;SDS011;62539;51.190;6.808;2022-11-20T06:57:57;2.78;;;2.05;;
62616;SDS011;62539;51.190;6.808;2022-11-20T07:00:23;2.92;;;2.08;;
62616;SDS011;62539;51.190;6.808;2022-11-20T07:02:49;3.33;;;2.40;;
62616;SDS011;62539;51.190;6.808;2022-11-20T07:05:14;4.57;;;2.35;;
62616;SDS011;62539;51.190;6.808;2022-11-20T07:07:40;3.33;;;2.92;;
62616;SDS011;62539;51.190;6.808;2022-11-20T07:10:06;6.05;;;2.67;;
62616;SDS011;62539;51.190;6.808;2022-11-20T07:12:32;3.35;;;2.53;;
62616;SDS011;62539;51.190;6.808;2022-11-20T07:14:57;3.53;;;2.42;;
62616;SDS011;62539;51.190;6.808;2022-11-20T07:17:22;4.03;;;2.55;;
62616;SDS011;62539;51.190;6.808;2022-11-20T07:19:48;2.72;;;2.15;;
62616;SDS011;62539;51.190;6.808;2022-11-20T07:22:13;2.72;;;2.22;;
62616;SDS011;62539;51.190;6.808;2022-11-20T07:24:38;3.63;;;2.30;;
62616;SDS011;62539;51.190;6.808;2022-11-20T07:27:04;3.10;;;2.35;;
62616;SDS011;62539;51.190;6.808;2022-11-20T07:29:30;3.00;;;2.70;;
62616;SDS011;62539;51.190;6.808;2022-11-20T07:31:55;4.43;;;2.75;;
62616;SDS011;62539;51.190;6.808;2022-11-20T07:34:21;7.68;;;2.55;;
62616;SDS011;62539;51.190;6.808;2022-11-20T07:36:47;3.17;;;2.00;;
62616;SDS011;62539;51.190;6.808;2022-11-20T07:39:12;4.05;;;2.88;;
62616;SDS011;62539;51.190;6.808;2022-11-20T07:41:37;6.20;;;2.78;;
62616;SDS011;62539;51.190;6.808;2022-11-20T07:44:03;3.88;;;2.60;;
62616;SDS011;62539;51.190;6.808;2022-11-20T07:46:28;5.85;;;2.75;;
62616;SDS011;62539;51.190;6.808;2022-11-20T07:48:54;3.83;;;2.63;;
62616;SDS011;62539;51.190;6.808;2022-11-20T07:51:19;3.63;;;2.42;;
62616;SDS011;62539;51.190;6.808;2022-11-20T07:53:45;3.22;;;2.42;;
62616;SDS011;62539;51.190;6.808;2022-11-20T07:56:10;4.70;;;2.38;;
62616;SDS011;62539;51.190;6.808;2022-11-20T07:58:35;4.43;;;2.45;;
62616;SDS011;62539;51.190;6.808;2022-11-20T08:01:07;4.20;;;2.75;;
62616;SDS011;62539;51.190;6.808;2022-11-20T08:03:33;3.95;;;2.58;;
62616;SDS011;62539;51.190;6.808;2022-11-20T08:05:59;5.55;;;3.15;;
62616;SDS011;62539;51.190;6.808;2022-11-20T08:08:25;3.60;;;2.30;;
62616;SDS011;62539;51.190;6.808;2022-11-20T08:10:51;5.78;;;2.70;;
62616;SDS011;62539;51.190;6.808;2022-11-20T08:13:17;9.57;;;3.15;;
62616;SDS011;62539;51.190;6.808;2022-11-20T08:16:01;6.88;;;2.72;;
62616;SDS011;62539;51.190;6.808;2022-11-20T08:18:27;7.15;;;2.88;;
62616;SDS011;62539;51.190;6.808;2022-11-20T08:20:52;8.95;;;2.67;;
62616;SDS011;62539;51.190;6.808;2022-11-20T08:23:18;5.13;;;2.75;;
62616;SDS011;62539;51.190;6.808;2022-11-20T08:25:43;3.15;;;2.55;;
62616;SDS011;62539;51.190;6.808;2022-11-20T08:28:13;5.45;;;3.00;;
62616;SDS011;62539;51.190;6.808;2022-11-20T08:30:38;4.45;;;2.97;;
62616;SDS011;62539;51.190;6.808;2022-11-20T08:33:05;5.35;;;3.00;;
62616;SDS011;62539;51.190;6.808;2022-11-20T08:35:34;8.47;;;2.70;;
62616;SDS011;62539;51.190;6.808;2022-11-20T08:38:04;3.60;;;2.70;;
62616;SDS011;62539;51.190;6.808;2022-11-20T08:40:30;5.53;;;2.85;;
62616;SDS011;62539;51.190;6.808;2022-11-20T08:42:56;4.78;;;3.10;;
62616;SDS011;62539;51.190;6.808;2022-11-20T08:45:22;4.15;;;2.55;;
62616;SDS011;62539;51.190;6.808;2022-11-20T08:47:47;4.97;;;2.72;;
62616;SDS011;62539;51.190;6.808;2022-11-20T08:50:13;4.57;;;2.53;;
62616;SDS011;62539;51.190;6.808;2022-11-20T08:52:41;5.55;;;3.05;;
62616;SDS011;62539;51.190;6.808;2022-11-20T08:55:07;4.90;;;2.65;;
62616;SDS011;62539;51.190;6.808;2022-11-20T08:57:35;4.85;;;2.70;;
62616;SDS011;62539;51.190;6.808;2022-11-20T09:00:03;5.20;;;2.92;;
62616;SDS011;62539;51.190;6.808;2022-11-20T09:02:30;4.80;;;2.53;;
62616;SDS011;62539;51.190;6.808;2022-11-20T09:04:57;3.10;;;2.30;;
62616;SDS011;62539;51.190;6.808;2022-11-20T09:07:23;8.90;;;3.22;;
62616;SDS011;62539;51.190;6.808;2022-11-20T09:09:48;5.90;;;2.78;;
62616;SDS011;62539;51.190;6.808;2022-11-20T09:12:13;7.72;;;2.90;;
62616;SDS011;62539;51.190;6.808;2022-11-20T09:14:39;6.68;;;2.70;;
62616;SDS011;62539;51.190;6.808;2022-11-20T09:17:04;4.40;;;3.17;;
62616;SDS011;62539;51.190;6.808;2022-11-20T09:19:32;8.10;;;2.80;;
62616;SDS011;62539;51.190;6.808;2022-11-20T09:21:57;6.05;;;2.85;;
62616;SDS011;62539;51.190;6.808;2022-11-20T09:24:24;7.65;;;3.65;;
62616;SDS011;62539;51.190;6.808;2022-11-20T09:26:53;11.25;;;3.17;;
62616;SDS011;62539;51.190;6.808;2022-11-20T09:29:18;6.50;;;3.10;;
62616;SDS011;62539;51.190;6.808;2022-11-20T09:31:44;5.40;;;2.90;;
62616;SDS011;62539;51.190;6.808;2022-11-20T09:34:09;5.18;;;3.20;;
62616;SDS011;62539;51.190;6.808;2022-11-20T09:36:35;4.90;;;2.90;;
62616;SDS011;62539;51.190;6.808;2022-11-20T09:39:00;9.18;;;2.83;;
62616;SDS011;62539;51.190;6.808;2022-11-20T09:56:36;7.82;;;3.33;;
62616;SDS011;62539;51.190;6.808;2022-11-20T09:59:07;5.57;;;3.10;;
62616;SDS011;62539;51.190;6.808;2022-11-20T10:01:51;6.40;;;3.35;;
62616;SDS011;62539;51.190;6.808;2022-11-20T10:04:19;7.50;;;3.10;;
62616;SDS011;62539;51.190;6.808;2022-11-20T10:06:56;6.15;;;3.25;;
62616;SDS011;62539;51.190;6.808;2022-11-20T10:09:40;7.82;;;3.50;;
62616;SDS011;62539;51.190;6.808;2022-11-20T10:12:16;7.60;;;3.75;;
62616;SDS011;62539;51.190;6.808;2022-11-20T10:20:54;11.57;;;3.35;;
62616;SDS011;62539;51.190;6.808;2022-11-20T10:23:51;6.28;;;3.55;;
62616;SDS011;62539;51.190;6.808;2022-11-20T10:26:59;9.50;;;2.85;;
62616;SDS011;62539;51.190;6.808;2022-11-20T10:29:54;8.27;;;3.38;;
62616;SDS011;62539;51.190;6.808;2022-11-20T10:32:40;8.50;;;3.95;;
62616;SDS011;62539;51.190;6.808;2022-11-20T10:35:39;6.22;;;3.17;;
62616;SDS011;62539;51.190;6.808;2022-11-20T10:38:21;5.50;;;2.72;;
62616;SDS011;62539;51.190;6.808;2022-11-20T10:41:04;6.22;;;3.60;;
62616;SDS011;62539;51.190;6.808;2022-11-20T10:43:51;7.22;;;2.88;;
62616;SDS011;62539;51.190;6.808;2022-11-20T10:46:33;6.20;;;3.40;;
62616;SDS011;62539;51.190;6.808;2022-11-20T10:49:11;13.52;;;3.38;;
62616;SDS011;62539;51.190;6.808;2022-11-20T10:55:25;6.07;;;2.83;;
62616;SDS011;62539;51.190;6.808;2022-11-20T10:58:08;5.93;;;3.00;;
62616;SDS011;62539;51.190;6.808;2022-11-20T11:00:41;4.53;;;3.10;;
62616;SDS011;62539;51.190;6.808;2022-11-20T11:03:20;5.95;;;3.05;;
62616;SDS011;62539;51.190;6.808;2022-11-20T11:05:58;9.80;;;3.47;;
62616;SDS011;62539;51.190;6.808;2022-11-20T11:08:37;5.93;;;3.63;;
62616;SDS011;62539;51.190;6.808;2022-11-20T11:11:15;7.35;;;3.05;;
62616;SDS011;62539;51.190;6.808;2022-11-20T11:13:48;5.32;;;3.10;;
62616;SDS011;62539;51.190;6.808;2022-11-20T11:16:21;8.82;;;3.47;;
62616;SDS011;62539;51.190;6.808;2022-11-20T11:18:51;9.55;;;3.53;;
62616;SDS011;62539;51.190;6.808;2022-11-20T11:21:37;8.85;;;3.10;;
62616;SDS011;62539;51.190;6.808;2022-11-20T11:24:14;6.22;;;2.97;;
62616;SDS011;62539;51.190;6.808;2022-11-20T11:29:19;6.88;;;2.60;;
62616;SDS011;62539;51.190;6.808;2022-11-20T11:31:45;6.57;;;3.60;;
62616;SDS011;62539;51.190;6.808;2022-11-20T11:34:14;9.02;;;3.20;;
62616;SDS011;62539;51.190;6.808;2022-11-20T11:36:42;6.68;;;3.38;;
62616;SDS011;62539;51.190;6.808;2022-11-20T11:39:18;6.88;;;2.85;;
62616;SDS011;62539;51.190;6.808;2022-11-20T11:41:46;4.35;;;3.00;;
62616;SDS011;62539;51.190;6.808;2022-11-20T11:47:04;9.50;;;3.00;;
62616;SDS011;62539;51.190;6.808;2022-11-20T11:50:08;7.05;;;3.10;;
62616;SDS011;62539;51.190;6.808;2022-11-20T11:52:49;18.63;;;3.42;;
62616;SDS011;62539;51.190;6.808;2022-11-20T11:58:43;7.57;;;3.28;;
62616;SDS011;62539;51.190;6.808;2022-11-20T12:07:15;10.07;;;2.72;;
62616;SDS011;62539;51.190;6.808;2022-11-20T12:09:57;9.23;;;3.10;;
62616;SDS011;62539;51.190;6.808;2022-11-20T12:12:27;14.60;;;3.22;;
62616;SDS011;62539;51.190;6.808;2022-11-20T12:15:03;9.25;;;3.28;;
62616;SDS011;62539;51.190;6.808;2022-11-20T12:17:34;8.30;;;2.65;;
62616;SDS011;62539;51.190;6.808;2022-11-20T12:20:00;8.32;;;2.78;;
62616;SDS011;62539;51.190;6.808;2022-11-20T12:25:30;8.60;;;3.30;;
62616;SDS011;62539;51.190;6.808;2022-11-20T12:28:07;4.13;;;2.83;;
62616;SDS011;62539;51.190;6.808;2022-11-20T12:31:24;10.07;;;5.18;;
62616;SDS011;62539;51.190;6.808;2022-11-20T12:34:00;8.13;;;5.67;;
62616;SDS011;62539;51.190;6.808;2022-11-20T12:39:55;8.75;;;4.90;;
62616;SDS011;62539;51.190;6.808;2022-11-20T12:45:51;8.05;;;4.70;;
62616;SDS011;62539;51.190;6.808;2022-11-20T12:51:47;7.03;;;4.20;;
62616;SDS011;62539;51.190;6.808;2022-11-20T13:03:03;10.15;;;4.40;;
62616;SDS011;62539;51.190;6.808;2022-11-20T13:08:34;11.27;;;3.88;;
62616;SDS011;62539;51.190;6.808;2022-11-20T13:11:14;10.77;;;4.20;;
62616;SDS011;62539;51.190;6.808;2022-11-20T13:14:38;11.05;;;3.70;;
62616;SDS011;62539;51.190;6.808;2022-11-20T13:17:22;10.65;;;4.05;;
62616;SDS011;62539;51.190;6.808;2022-11-20T13:19:56;10.70;;;4.03;;
62616;SDS011;62539;51.190;6.808;2022-11-20T13:22:42;11.18;;;3.92;;
62616;SDS011;62539;51.190;6.808;2022-11-20T13:27:53;10.80;;;4.20;;
62616;SDS011;62539;51.190;6.808;2022-11-20T13:30:21;15.18;;;4.38;;
62616;SDS011;62539;51.190;6.808;2022-11-20T13:32:56;13.07;;;4.35;;
62616;SDS011;62539;51.190;6.808;2022-11-20T13:35:29;7.43;;;4.15;;
62616;SDS011;62539;51.190;6.808;2022-11-20T13:45:56;8.30;;;4.03;;
62616;SDS011;62539;51.190;6.808;2022-11-20T13:48:41;10.32;;;3.92;;
62616;SDS011;62539;51.190;6.808;2022-11-20T13:54:14;11.65;;;4.07;;
62616;SDS011;62539;51.190;6.808;2022-11-20T14:00:44;8.10;;;3.42;;
62616;SDS011;62539;51.190;6.808;2022-11-20T14:03:20;10.20;;;4.50;;
62616;SDS011;62539;51.190;6.808;2022-11-20T14:05:49;13.82;;;4.03;;
62616;SDS011;62539;51.190;6.808;2022-11-20T14:11:15;17.33;;;4.05;;
62616;SDS011;62539;51.190;6.808;2022-11-20T14:13:51;8.90;;;3.78;;
62616;SDS011;62539;51.190;6.808;2022-11-20T14:16:23;9.52;;;3.58;;
62616;SDS011;62539;51.190;6.808;2022-11-20T14:18:51;15.25;;;8.85;;
62616;SDS011;62539;51.190;6.808;2022-11-20T14:24:07;23.90;;;12.98;;
62616;SDS011;62539;51.190;6.808;2022-11-20T14:26:37;33.80;;;15.02;;
62616;SDS011;62539;51.190;6.808;2022-11-20T14:29:50;22.73;;;12.35;;
62616;SDS011;62539;51.190;6.808;2022-11-20T14:32:02;33.42;;;12.10;;
62616;SDS011;62539;51.190;6.808;2022-11-20T14:34:30;21.90;;;11.57;;
62616;SDS011;62539;51.190;6.808;2022-11-20T14:37:04;34.78;;;11.15;;
62616;SDS011;62539;51.190;6.808;2022-11-20T14:39:36;23.45;;;10.13;;
62616;SDS011;62539;51.190;6.808;2022-11-20T14:42:23;26.05;;;10.65;;
62616;SDS011;62539;51.190;6.808;2022-11-20T14:44:57;22.00;;;10.10;;
62616;SDS011;62539;51.190;6.808;2022-11-20T14:47:25;20.20;;;8.88;;
62616;SDS011;62539;51.190;6.808;2022-11-20T14:52:24;22.23;;;8.57;;
62616;SDS011;62539;51.190;6.808;2022-11-20T14:54:55;21.50;;;8.55;;
62616;SDS011;62539;51.190;6.808;2022-11-20T14:57:27;16.25;;;8.60;;
62616;SDS011;62539;51.190;6.808;2022-11-20T15:02:44;19.90;;;7.40;;
62616;SDS011;62539;51.190;6.808;2022-11-20T15:05:12;15.20;;;8.30;;
62616;SDS011;62539;51.190;6.808;2022-11-20T15:07:40;13.95;;;7.38;;
62616;SDS011;62539;51.190;6.808;2022-11-20T15:10:18;15.43;;;6.97;;
62616;SDS011;62539;51.190;6.808;2022-11-20T15:12:51;15.27;;;7.43;;
62616;SDS011;62539;51.190;6.808;2022-11-20T15:15:21;15.30;;;8.23;;
62616;SDS011;62539;51.190;6.808;2022-11-20T15:17:55;17.38;;;9.98;;
62616;SDS011;62539;51.190;6.808;2022-11-20T15:20:23;14.77;;;9.80;;
62616;SDS011;62539;51.190;6.808;2022-11-20T15:22:54;14.20;;;8.90;;
62616;SDS011;62539;51.190;6.808;2022-11-20T15:25:19;15.38;;;7.80;;
62616;SDS011;62539;51.190;6.808;2022-11-20T15:27:45;11.20;;;7.43;;
62616;SDS011;62539;51.190;6.808;2022-11-20T15:30:19;12.93;;;7.55;;
62616;SDS011;62539;51.190;6.808;2022-11-20T15:32:45;11.32;;;6.63;;
62616;SDS011;62539;51.190;6.808;2022-11-20T15:35:12;12.13;;;7.35;;
62616;SDS011;62539;51.190;6.808;2022-11-20T15:37:39;11.23;;;6.20;;
62616;SDS011;62539;51.190;6.808;2022-11-20T15:40:06;9.95;;;6.13;;
62616;SDS011;62539;51.190;6.808;2022-11-20T15:42:33;8.98;;;6.30;;
62616;SDS011;62539;51.190;6.808;2022-11-20T15:45:00;11.52;;;6.97;;
62616;SDS011;62539;51.190;6.808;2022-11-20T15:47:35;7.97;;;5.75;;
62616;SDS011;62539;51.190;6.808;2022-11-20T15:50:00;7.75;;;5.28;;
62616;SDS011;62539;51.190;6.808;2022-11-20T15:52:26;9.73;;;6.07;;
62616;SDS011;62539;51.190;6.808;2022-11-20T15:54:51;8.80;;;5.88;;
62616;SDS011;62539;51.190;6.808;2022-11-20T15:57:17;8.40;;;5.63;;
62616;SDS011;62539;51.190;6.808;2022-11-20T15:59:42;8.43;;;5.55;;
62616;SDS011;62539;51.190;6.808;2022-11-20T16:02:11;7.60;;;5.75;;
62616;SDS011;62539;51.190;6.808;2022-11-20T16:04:38;7.53;;;5.57;;
62616;SDS011;62539;51.190;6.808;2022-11-20T16:07:04;8.02;;;5.43;;
62616;SDS011;62539;51.190;6.808;2022-11-20T16:09:30;9.38;;;5.75;;
62616;SDS011;62539;51.190;6.808;2022-11-20T16:11:55;9.02;;;5.45;;
62616;SDS011;62539;51.190;6.808;2022-11-20T16:14:20;18.02;;;6.00;;
62616;SDS011;62539;51.190;6.808;2022-11-20T16:17:04;9.18;;;5.93;;
62616;SDS011;62539;51.190;6.808;2022-11-20T16:19:30;12.30;;;5.30;;
62616;SDS011;62539;51.190;6.808;2022-11-20T16:21:56;7.47;;;5.43;;
62616;SDS011;62539;51.190;6.808;2022-11-20T16:24:24;9.98;;;5.13;;
62616;SDS011;62539;51.190;6.808;2022-11-20T16:26:49;10.73;;;5.40;;
62616;SDS011;62539;51.190;6.808;2022-11-20T16:29:15;7.60;;;5.43;;
62616;SDS011;62539;51.190;6.808;2022-11-20T16:31:40;9.70;;;4.72;;
62616;SDS011;62539;51.190;6.808;2022-11-20T16:34:06;8.27;;;4.65;;
62616;SDS011;62539;51.190;6.808;2022-11-20T16:36:32;13.55;;;4.82;;
62616;SDS011;62539;51.190;6.808;2022-11-20T16:38:59;10.25;;;5.00;;